Historyczne dane pomiarowe

Dodano dane terminowe – wersja testowa.

Dane z okresu 1951-2019

Wersja bazy: 1.34 [2019-03-16, lista zmian], aktualizacja planowana na 2019-04-15

Dane meteo z obszaru Polski uzyskane na podstawie danych udostępnionych przez Instytut Meteorologii i Gospodarki Wodnej – Państwowy Instytut Badawczy.

 

Wybierz Datę:    

       

TemperaturaWilgotnośćWiatrCiśnienieOpadyŚniegCzas trwania zjawisk
 Stacja t tx tn tng RH VA  wxwx mslp ppp RRR   cm mm wxwxwxwxwxwxwx
1987-08-14 14.2 22.6 8.0- 86.5- 2.7 1.0---- 4.6------------
1987-08-13 13.1 18.6 6.9- 75.3- 1.3 1.3---- 0.0------------
1987-08-12 12.2 18.4 7.8- 76.8- 4.3 2.0---- 0.0------------
1987-08-11 13.3 16.6 12.1- 90.3- 7.0 2.0---- 1.0------------
1987-08-10 15.4 19.7 13.8- 84.5- 6.7 1.7---- 2.3------------
1987-08-09 16.2 24.4 8.0- 67.5- 2.0 0.7---- 0.0------------
1987-08-08 14.3 20.5 10.8- 72.5- 4.0 1.0---- 0.0------------
1987-08-07 11.6 19.3 6.5- 79.5- 2.7 1.0---- 1.2------------
1987-08-06 11.0 16.4 9.0- 84.5- 1.7 0.7---- 0.2------------
1987-08-05 12.1 18.4 7.5- 81.0- 0.3 0.7---- 0.0------------
1987-08-04 14.1 19.7 10.1- 89.5- 1.3 1.0---- 3.0------------
1987-08-03 14.4 19.2 10.4- 74.8- 2.7 1.7---- 0.0------------
1987-08-02 15.1 19.2 13.1- 76.8- 5.3 1.3---- 5.3------------
1987-08-01 15.2 22.5 7.6- 76.0- 2.7 1.0---- 1.2------------
1987-07-31 15.3 21.6 13.4- 92.3- 8.0 1.0---- 2.8------------
1987-07-30 17.4 24.6 12.0- 72.0- 0.0 1.0---- 0.0------------
1987-07-29 14.7 19.8 11.0- 70.8- 6.7 1.7---- 0.0------------
1987-07-28 13.7 18.0 12.2- 86.3- 8.0 2.7---- 1.4------------
1987-07-27 12.7 17.8 7.9- 74.3- 5.3 3.3---- 2.0------------
1987-07-26 13.5 18.0 11.5- 96.0- 8.0 1.0---- 7.3------------
1987-07-25 19.3 24.8 14.2- 88.0- 4.0 1.7---- 7.6------------
1987-07-24 21.1 27.5 16.1- 80.8- 6.0 2.3---- 3.8------------
1987-07-23 21.8 28.9 11.6- 65.5- 1.3 0.3---- 8.5------------
1987-07-22 21.1 25.9 17.4- 74.3- 4.0 2.0---- 0.0------------
1987-07-21 19.9 26.2 11.9- 73.8- 5.7 1.7---- 0.0------------
1987-07-20 21.6 25.2 13.8- 77.0- 2.7 2.7---- 0.0------------
1987-07-19 22.8 30.9 18.4- 80.3- 5.3 1.7---- 0.0------------
1987-07-18 22.9 30.0 17.6- 74.8- 2.3 1.7---- 0.0------------
1987-07-17 21.9 29.0 15.1- 70.3- 5.7 2.3---- 0.8------------
1987-07-16 19.7 28.0 9.3- 62.8- 3.7 2.3---- 0.0------------
1987-07-15 16.1 23.1 6.1- 67.3- 1.3 1.3---- 0.0------------
1987-07-14 15.6 21.8 8.2- 68.5- 1.3 2.0---- 0.0------------
1987-07-13 18.8 23.9 13.1- 70.0- 2.7 1.7---- 0.0------------
1987-07-12 20.6 29.1 10.2- 60.5- 4.0 3.0---- 4.8------------
1987-07-11 15.5 23.7 4.5- 67.3- 1.7 2.0---- 0.0------------
1987-07-10 14.5 20.0 10.0- 68.3- 3.0 2.7---- 0.0------------
1987-07-09 17.3 25.2 13.5- 87.3- 8.0 1.7---- 1.3------------
1987-07-08 20.3 28.8 9.4- 60.0- 0.7 1.7---- 0.0------------
1987-07-07 18.7 25.9 8.5- 62.5- 0.0 1.3---- 0.0------------
1987-07-06 18.0 22.7 9.6- 59.5- 0.3 1.7---- 0.0------------
1987-07-05 15.9 21.3 13.3- 73.0- 6.0 2.0---- 0.0------------
1987-07-04 18.6 22.9 15.7- 67.3- 6.0 1.3---- 3.7------------
1987-07-03 19.2 22.6 16.7- 71.8- 8.0 1.0---- 0.0------------
1987-07-02 20.2 27.4 16.9- 79.0- 7.3 2.7---- 0.0------------
1987-07-01 24.4 30.8 17.0- 74.3- 0.0 0.7---- 0.0------------
1987-06-30 22.9 29.3 14.2- 68.5- 1.3 0.7---- 0.0------------
1987-06-29 19.7 25.9 13.8- 76.0- 2.3 0.3---- 0.0------------
1987-06-28 19.0 25.2 10.8- 75.3- 4.0 2.0---- 0.0------------
1987-06-27 18.3 23.7 14.0- 83.0- 4.3 1.3---- 0.0------------
1987-06-26 16.0 23.5 5.7- 70.0- 2.7 2.0---- 3.2------------
1987-06-25 15.5 18.4 13.2- 73.3- 4.0 2.3---- 0.0------------
1987-06-24 16.6 20.7 12.3- 74.3- 3.3 1.0---- 5.8------------
1987-06-23 15.9 20.3 11.5- 82.8- 3.0 1.3---- 1.1------------
1987-06-22 16.5 23.3 12.4- 78.5- 4.3 1.7---- 0.1------------
1987-06-21 17.9 23.9 9.5- 65.3- 2.3 1.3---- 0.0------------
1987-06-20 15.2 22.3 5.0- 63.3- 0.3 1.7---- 0.0------------
1987-06-19 11.9 23.5 6.4- 75.8- 2.3 1.0---- 0.0------------
1987-06-18 10.5 17.3 2.9- 77.5- 4.0 1.0---- 2.4------------
1987-06-17 11.9 16.2 8.0- 75.3- 1.3 1.7---- 0.0------------
1987-06-16 15.7 25.7 12.3- 81.0- 6.7 2.3---- 2.4------------
742.1 ms

 

Źródłem pochodzenia danych jest Instytut Meteorologii i Gospodarki Wodnej – Państwowy Instytut Badawczy. Dane Instytutu Meteorologii i Gospodarki Wodnej – Państwowego Instytutu Badawczego zostały przetworzone.

Dane źródłowe można odnaleźć na stronie https://dane.imgw.pl